ENAT/ALF METAR and TAF weather

Enter ICAO airport designator
Station Type Date Time Source
ENAT METAR 2018/01/22 11:50 UTC NOAA

ENAT 221150Z 14008KT CAVOK M15/M20 Q1015 RMK WIND 700FT 14015KT


Station Type Date Time Source
ENAT Decoded METAR 2018/01/22 11:50 UTC NOAA

Alta Lufthavn, Norway (ENAT) 69-59N 023-22E 3M
Jan 22, 2018 - 06:50 AM EST / 2018.01.22 1150 UTC
Wind: from the SE (140 degrees) at 9 MPH (8 KT):0
Visibility: greater than 7 mile(s):0
Temperature: 5 F (-15 C)
Windchill: -9 F (-23 C):2
Dew Point: -4 F (-20 C)
Relative Humidity: 65%
Pressure (altimeter): 29.97 in. Hg (1015 hPa)
ob: ENAT 221150Z 14008KT CAVOK M15/M20 Q1015 RMK WIND 700FT 14015KT
cycle: 12

Station Type Date Time Source
ENAT TAF 2008/11/30 23:00 UTC NOAA

TAF TAF ENAT 302300Z 3023/0102 22005KT 7000 -SN FEW008 BKN020
TEMPO 3023/0102 3000 -SN VV012


Example: see airport list